Terminal Aerodrome Forecast
Issued by NWS

Home | Current Version | Previous Version | Text Only | Print | Product List | Glossary On
Versions: 1 2 3 4 5 6 7 8 9 10 11 12 13
000
FTUS45 KRIW 211100
TAFLND
TAF
KLND 211126Z 2112/2212 VRB05KT P6SM SKC
     FM211800 VRB05KT P6SM SCT090
     FM220000 VRB05KT P6SM BKN090
     FM220300 VRB05KT P6SM VCSH BKN080
     FM221000 VRB06KT P6SM -SHRA BKN050=

USA.gov is the U.S. government's official web portal to all federal, state and local government web resources and services.